Time;durP1;ratioP1;P1;durP2;ratioP2;P2;SDS_P1;SDS_P2;PMS_P1;PMS_P2;Temp;Humidity;BMP_temperature;BMP_pressure;BME280_temperature;BME280_humidity;BME280_pressure;Samples;Min_cycle;Max_cycle;Signal;HPM_P1;HPM_P2
2020/12/10 00:00:24;;;;;;;23.30;16.73;;;3.00;99.90;;;;;;4991014;28;20242;-65
2020/12/10 00:02:50;;;;;;;25.73;17.70;;;2.90;99.90;;;;;;4991217;28;20202;-66
2020/12/10 00:05:16;;;;;;;22.67;16.23;;;2.90;99.90;;;;;;4991349;28;20180;-66
2020/12/10 00:07:42;;;;;;;27.57;16.80;;;2.90;99.90;;;;;;4991178;28;20175;-65
2020/12/10 00:10:09;;;;;;;21.17;15.37;;;2.90;99.90;;;;;;4992030;28;20521;-66
2020/12/10 00:12:42;;;;;;;24.90;16.40;;;2.90;99.90;;;;;;4990809;28;20199;-66
2020/12/10 00:15:08;;;;;;;24.33;16.07;;;3.00;99.90;;;;;;4991523;28;20612;-66
2020/12/10 00:17:34;;;;;;;25.93;16.83;;;2.90;99.90;;;;;;4991419;28;20480;-66
2020/12/10 00:19:59;;;;;;;25.10;15.93;;;3.00;99.90;;;;;;4991034;28;20470;-66
2020/12/10 00:22:25;;;;;;;23.67;15.80;;;3.00;99.90;;;;;;4989830;28;20595;-66
2020/12/10 00:24:51;;;;;;;23.83;16.80;;;3.00;99.90;;;;;;4991210;28;20250;-67
2020/12/10 00:27:22;;;;;;;21.87;16.37;;;3.00;99.90;;;;;;4991479;28;20481;-66
2020/12/10 00:29:47;;;;;;;22.40;15.60;;;3.00;99.90;;;;;;4991178;28;20506;-67
2020/12/10 00:32:13;;;;;;;22.57;16.53;;;3.00;99.90;;;;;;4991496;28;20478;-66
2020/12/10 00:34:41;;;;;;;26.27;17.43;;;3.10;99.90;;;;;;4991700;28;20211;-66
2020/12/10 00:37:06;;;;;;;22.77;15.87;;;3.00;99.90;;;;;;4990581;28;20792;-66
2020/12/10 00:39:34;;;;;;;26.17;16.87;;;3.00;99.90;;;;;;4990362;28;20442;-67
2020/12/10 00:41:59;;;;;;;23.97;18.00;;;3.00;99.90;;;;;;4990468;28;20266;-66
2020/12/10 00:44:25;;;;;;;21.03;16.00;;;3.00;99.90;;;;;;4991186;28;20541;-66
2020/12/10 00:46:50;;;;;;;19.67;16.03;;;3.00;99.90;;;;;;4990922;28;20188;-67
2020/12/10 00:49:16;;;;;;;25.40;16.33;;;3.00;99.90;;;;;;4990711;28;20215;-66
2020/12/10 00:51:46;;;;;;;27.57;16.90;;;3.00;99.90;;;;;;4991053;28;20184;-66
2020/12/10 00:54:12;;;;;;;25.03;16.13;;;3.00;99.90;;;;;;4990860;28;20199;-66
2020/12/10 00:56:37;;;;;;;25.60;16.70;;;3.00;99.90;;;;;;4990361;28;20453;-66
2020/12/10 00:59:03;;;;;;;23.73;17.13;;;3.00;99.90;;;;;;4989572;28;20521;-66
2020/12/10 01:01:28;;;;;;;25.97;16.60;;;3.00;99.90;;;;;;4990983;28;20199;-66
2020/12/10 01:03:54;;;;;;;21.47;15.10;;;3.00;99.90;;;;;;4990540;28;20695;-65
2020/12/10 01:06:19;;;;;;;21.23;13.50;;;3.00;99.90;;;;;;4990675;28;20723;-66
2020/12/10 01:08:45;;;;;;;23.17;16.67;;;3.00;99.90;;;;;;4989427;28;20814;-66
2020/12/10 01:11:10;;;;;;;24.27;16.20;;;2.90;99.90;;;;;;4990409;28;20580;-66
2020/12/10 01:13:36;;;;;;;26.27;15.90;;;2.90;99.90;;;;;;4990697;28;20268;-66
2020/12/10 01:16:02;;;;;;;22.70;15.80;;;2.90;99.90;;;;;;4990861;28;20207;-67
2020/12/10 01:18:27;;;;;;;23.40;17.30;;;2.80;99.90;;;;;;4989443;28;20220;-65
2020/12/10 01:20:53;;;;;;;24.20;15.50;;;2.70;99.90;;;;;;4991154;28;20235;-66
2020/12/10 01:23:18;;;;;;;25.23;17.00;;;2.70;99.90;;;;;;4990147;28;20632;-67
2020/12/10 01:25:44;;;;;;;24.57;15.53;;;2.60;99.90;;;;;;4990853;28;20623;-66
2020/12/10 01:28:09;;;;;;;22.20;15.90;;;2.70;99.90;;;;;;4989660;28;20254;-65
2020/12/10 01:30:35;;;;;;;25.00;16.80;;;2.70;99.90;;;;;;4989935;28;20270;-66
2020/12/10 01:33:01;;;;;;;24.33;16.97;;;2.70;99.90;;;;;;4989899;28;20203;-67
2020/12/10 01:35:26;;;;;;;23.20;16.47;;;2.80;99.90;;;;;;4990164;28;20652;-66
2020/12/10 01:37:52;;;;;;;23.07;15.40;;;2.80;99.90;;;;;;4989589;28;20672;-66
2020/12/10 01:40:17;;;;;;;24.47;17.73;;;2.70;99.90;;;;;;4990266;28;20275;-67
2020/12/10 01:42:43;;;;;;;24.43;16.63;;;2.70;99.90;;;;;;4990573;28;20183;-66
2020/12/10 01:45:09;;;;;;;24.47;15.20;;;2.70;99.90;;;;;;4990744;28;20529;-67
2020/12/10 01:47:34;;;;;;;24.97;17.47;;;2.80;99.90;;;;;;4990218;28;20552;-66
2020/12/10 01:50:00;;;;;;;21.90;16.30;;;2.80;99.90;;;;;;4990645;28;20203;-65
2020/12/10 01:52:26;;;;;;;22.20;15.90;;;2.80;99.90;;;;;;4990718;28;20194;-67
2020/12/10 01:54:51;;;;;;;23.70;15.70;;;2.80;99.90;;;;;;4990327;28;20234;-66
2020/12/10 01:57:17;;;;;;;21.63;15.23;;;2.80;99.90;;;;;;4989891;28;20242;-65
2020/12/10 01:59:45;;;;;;;21.63;13.60;;;2.80;99.90;;;;;;4989920;28;20190;-66
2020/12/10 02:02:10;;;;;;;26.67;18.60;;;2.80;99.90;;;;;;4989839;28;20525;-66
2020/12/10 02:04:37;;;;;;;20.80;14.93;;;2.90;99.90;;;;;;4990431;28;20498;-66
2020/12/10 02:07:03;;;;;;;21.40;15.33;;;2.90;99.90;;;;;;4990325;28;20183;-65
2020/12/10 02:09:29;;;;;;;24.07;16.23;;;2.90;99.90;;;;;;4989316;28;20553;-66
2020/12/10 02:11:55;;;;;;;25.13;15.70;;;2.90;99.90;;;;;;4990089;28;20569;-66
2020/12/10 02:14:22;;;;;;;25.80;16.87;;;2.90;99.90;;;;;;4990223;28;20462;-65
2020/12/10 02:16:55;;;;;;;24.60;14.97;;;2.90;99.90;;;;;;4990171;28;20180;-66
2020/12/10 02:19:20;;;;;;;21.60;15.23;;;2.90;99.90;;;;;;4989071;28;20442;-65
2020/12/10 02:21:46;;;;;;;23.43;16.83;;;2.90;99.90;;;;;;4992793;28;20650;-67
2020/12/10 02:24:16;;;;;;;28.10;16.97;;;2.90;99.90;;;;;;4993418;28;20203;-67
2020/12/10 02:26:41;;;;;;;20.97;14.10;;;2.90;99.90;;;;;;4993840;28;20192;-66
2020/12/10 02:29:08;;;;;;;23.50;18.47;;;2.80;99.90;;;;;;4992474;28;20474;-64
2020/12/10 02:31:34;;;;;;;24.20;18.13;;;2.80;99.90;;;;;;4993845;28;20290;-66
2020/12/10 02:34:05;;;;;;;21.93;14.80;;;2.80;99.90;;;;;;5009871;23;20823;-69
2020/12/10 02:36:31;;;;;;;23.90;17.97;;;2.90;99.90;;;;;;5006520;28;20434;-67
2020/12/10 02:38:57;;;;;;;22.90;17.47;;;2.80;99.90;;;;;;5007576;28;20953;-68
2020/12/10 02:41:23;;;;;;;26.00;20.17;;;2.90;99.90;;;;;;5012495;28;20425;-68
2020/12/10 02:43:49;;;;;;;25.83;16.67;;;2.90;99.90;;;;;;5013505;28;20198;-69
2020/12/10 02:46:15;;;;;;;29.83;18.80;;;2.80;99.90;;;;;;5003792;28;20258;-69
2020/12/10 02:48:40;;;;;;;25.70;18.67;;;2.60;99.90;;;;;;4997777;28;20211;-69
2020/12/10 02:51:06;;;;;;;24.40;18.37;;;2.70;99.90;;;;;;4994794;28;20994;-69
2020/12/10 02:53:33;;;;;;;26.13;16.87;;;2.80;99.90;;;;;;4994226;28;20202;-69
2020/12/10 02:55:59;;;;;;;24.20;16.67;;;2.80;99.90;;;;;;4995480;28;21043;-69
2020/12/10 02:58:25;;;;;;;25.23;18.23;;;2.80;99.90;;;;;;4999510;28;20513;-69
2020/12/10 03:00:51;;;;;;;29.60;17.93;;;2.70;99.90;;;;;;5001676;28;20189;-68
2020/12/10 03:03:17;;;;;;;23.47;17.27;;;2.60;99.90;;;;;;4993532;28;20207;-69
2020/12/10 03:05:45;;;;;;;25.27;18.00;;;2.50;99.90;;;;;;5005158;28;20184;-69
2020/12/10 03:08:11;;;;;;;25.10;17.13;;;2.60;99.90;;;;;;5008048;28;20880;-69
2020/12/10 03:10:37;;;;;;;23.63;16.00;;;2.60;99.90;;;;;;4995737;28;20510;-69
2020/12/10 03:13:03;;;;;;;27.57;19.23;;;2.50;99.90;;;;;;4982664;28;20520;-66
2020/12/10 03:15:29;;;;;;;29.20;18.13;;;2.60;99.90;;;;;;5002370;28;20175;-69
2020/12/10 03:17:54;;;;;;;23.40;16.47;;;2.70;99.90;;;;;;5008585;28;20499;-69
2020/12/10 03:20:20;;;;;;;23.90;17.00;;;2.80;99.90;;;;;;5010027;28;20186;-68
2020/12/10 03:22:46;;;;;;;27.47;18.30;;;2.80;99.90;;;;;;4997939;28;20194;-69
2020/12/10 03:25:11;;;;;;;24.30;17.70;;;2.80;99.90;;;;;;5003918;28;20562;-68
2020/12/10 03:27:37;;;;;;;26.17;17.03;;;2.80;99.90;;;;;;5005624;28;20179;-68
2020/12/10 03:30:03;;;;;;;29.73;17.40;;;2.80;99.90;;;;;;5000725;28;20690;-69
2020/12/10 03:32:29;;;;;;;25.03;17.97;;;2.80;99.90;;;;;;5009037;28;20206;-69
2020/12/10 03:34:54;;;;;;;24.50;17.67;;;2.60;99.90;;;;;;5005825;28;20956;-69
2020/12/10 03:37:20;;;;;;;25.20;16.47;;;2.70;99.90;;;;;;4993775;28;20200;-68
2020/12/10 03:39:46;;;;;;;27.13;17.50;;;2.70;99.90;;;;;;5010166;28;20258;-69
2020/12/10 03:42:12;;;;;;;24.70;17.57;;;2.70;99.90;;;;;;5001623;28;20179;-68
2020/12/10 03:44:38;;;;;;;26.10;17.70;;;2.70;99.90;;;;;;4994410;28;20301;-69
2020/12/10 03:47:04;;;;;;;31.00;18.83;;;2.70;99.90;;;;;;4993324;28;20459;-69
2020/12/10 03:49:30;;;;;;;27.63;17.03;;;2.80;99.90;;;;;;4999845;28;20296;-69
2020/12/10 03:51:55;;;;;;;28.40;16.73;;;2.60;99.90;;;;;;5005075;28;20469;-69
2020/12/10 03:54:21;;;;;;;27.07;18.27;;;2.60;99.90;;;;;;4999408;28;20194;-69
2020/12/10 03:56:46;;;;;;;26.90;18.20;;;2.60;99.90;;;;;;5009327;28;20171;-69
2020/12/10 03:59:13;;;;;;;23.93;17.07;;;2.60;99.90;;;;;;4995191;28;20236;-66
2020/12/10 04:01:38;;;;;;;28.83;18.40;;;2.70;99.90;;;;;;5001037;28;20182;-69
2020/12/10 04:04:04;;;;;;;27.50;16.90;;;2.80;99.90;;;;;;4992449;28;20456;-69
2020/12/10 04:06:30;;;;;;;26.83;17.83;;;2.80;99.90;;;;;;5007005;28;20528;-69
2020/12/10 04:08:56;;;;;;;29.57;19.10;;;2.80;99.90;;;;;;4995977;28;20221;-69
2020/12/10 04:11:22;;;;;;;25.37;17.07;;;2.80;99.90;;;;;;4997825;28;20179;-69
2020/12/10 04:13:47;;;;;;;27.03;16.57;;;2.70;99.90;;;;;;4991240;28;20253;-69
2020/12/10 04:16:13;;;;;;;26.40;17.70;;;2.80;99.90;;;;;;5004693;28;20437;-68
2020/12/10 04:18:40;;;;;;;25.50;17.90;;;2.70;99.90;;;;;;4999439;28;20183;-68
2020/12/10 04:21:07;;;;;;;26.83;17.60;;;2.60;99.90;;;;;;5000860;28;20261;-68
2020/12/10 04:23:32;;;;;;;26.43;18.07;;;2.60;99.90;;;;;;5003218;28;20458;-68
2020/12/10 04:25:58;;;;;;;25.40;18.30;;;2.70;99.90;;;;;;4992117;28;20841;-68
2020/12/10 04:28:24;;;;;;;25.53;17.47;;;2.70;99.90;;;;;;5003820;28;20679;-68
2020/12/10 04:30:49;;;;;;;24.93;16.50;;;2.60;99.90;;;;;;4999093;28;20297;-68
2020/12/10 04:33:15;;;;;;;30.40;19.37;;;2.60;99.90;;;;;;5009328;28;20194;-68
2020/12/10 04:35:41;;;;;;;28.90;20.70;;;2.50;99.90;;;;;;4994253;28;20613;-68
2020/12/10 04:38:08;;;;;;;32.00;19.20;;;2.50;99.90;;;;;;4996394;28;20178;-68
2020/12/10 04:40:35;;;;;;;29.50;18.10;;;2.60;99.90;;;;;;5009534;28;20443;-68
2020/12/10 04:43:02;;;;;;;23.37;18.17;;;2.60;99.90;;;;;;5010516;28;20434;-69
2020/12/10 04:45:28;;;;;;;32.57;18.87;;;2.70;99.90;;;;;;4995972;28;20430;-68
2020/12/10 04:47:54;;;;;;;34.00;19.20;;;2.70;99.90;;;;;;4991286;28;20453;-68
2020/12/10 04:50:23;;;;;;;33.53;17.83;;;2.60;99.90;;;;;;5008442;28;20469;-68
2020/12/10 04:52:50;;;;;;;26.47;18.23;;;2.60;99.90;;;;;;5009321;28;20433;-68
2020/12/10 04:55:15;;;;;;;28.23;19.30;;;2.60;99.90;;;;;;4996582;28;20484;-68
2020/12/10 04:57:43;;;;;;;37.53;24.70;;;2.60;99.90;;;;;;5007750;28;20454;-68
2020/12/10 05:00:09;;;;;;;36.07;21.00;;;2.50;99.90;;;;;;5003017;28;20229;-68
2020/12/10 05:02:34;;;;;;;33.47;20.73;;;2.50;99.90;;;;;;4994050;28;20426;-68
2020/12/10 05:05:00;;;;;;;32.53;20.80;;;2.40;99.90;;;;;;5006753;28;20206;-68
2020/12/10 05:07:39;;;;;;;35.87;20.70;;;2.40;99.90;;;;;;5004294;28;20282;-68
2020/12/10 05:10:05;;;;;;;35.30;21.40;;;2.30;99.90;;;;;;4997077;28;20241;-68
2020/12/10 05:12:31;;;;;;;38.50;22.77;;;2.30;99.90;;;;;;4992380;28;20466;-68
2020/12/10 05:14:56;;;;;;;35.27;20.20;;;2.40;99.90;;;;;;4998835;28;20230;-68
2020/12/10 05:17:22;;;;;;;39.90;23.40;;;2.40;99.90;;;;;;5009397;28;20209;-69
2020/12/10 05:19:58;;;;;;;34.40;21.47;;;2.50;99.90;;;;;;4998925;28;20179;-68
2020/12/10 05:22:23;;;;;;;31.20;19.53;;;2.40;99.90;;;;;;4999926;28;20192;-68
2020/12/10 05:25:04;;;;;;;37.77;23.57;;;2.50;99.90;;;;;;5001861;28;20902;-68
2020/12/10 05:27:32;;;;;;;35.63;20.50;;;2.40;99.90;;;;;;5005412;28;20589;-68
2020/12/10 05:29:58;;;;;;;36.60;21.10;;;2.50;99.90;;;;;;4999558;28;20457;-68
2020/12/10 05:32:33;;;;;;;40.20;21.50;;;2.60;99.90;;;;;;4990782;28;20454;-69
2020/12/10 05:35:14;;;;;;;29.93;19.17;;;2.50;99.90;;;;;;5006184;28;20516;-68
2020/12/10 05:37:40;;;;;;;34.30;20.70;;;2.60;99.90;;;;;;4998821;28;20435;-68
2020/12/10 05:40:07;;;;;;;37.30;21.33;;;2.60;99.90;;;;;;5004611;28;20533;-68
2020/12/10 05:42:36;;;;;;;37.13;20.87;;;2.60;99.90;;;;;;5009484;28;20433;-68
2020/12/10 05:45:18;;;;;;;36.50;21.07;;;2.50;99.90;;;;;;4992388;28;20450;-68
2020/12/10 05:47:54;;;;;;;35.47;19.73;;;2.40;99.90;;;;;;4995296;28;20430;-68
2020/12/10 05:50:25;;;;;;;41.97;21.80;;;2.50;99.90;;;;;;4990748;28;20512;-68
2020/12/10 05:53:05;;;;;;;37.67;21.77;;;2.30;99.90;;;;;;4992985;28;20435;-68
2020/12/10 05:55:32;;;;;;;40.97;23.23;;;2.30;99.90;;;;;;5005524;28;20479;-68
2020/12/10 05:57:59;;;;;;;36.37;21.47;;;2.30;99.90;;;;;;5004575;28;20550;-68
2020/12/10 06:00:25;;;;;;;43.90;22.40;;;2.20;99.90;;;;;;4994853;28;20453;-68
2020/12/10 06:02:53;;;;;;;42.10;21.40;;;2.20;99.90;;;;;;4999905;28;20462;-68
2020/12/10 06:05:19;;;;;;;44.37;24.23;;;2.10;99.90;;;;;;4994852;28;20219;-68
2020/12/10 06:08:05;;;;;;;39.47;22.27;;;2.00;99.90;;;;;;4999953;28;20465;-68
2020/12/10 06:10:42;;;;;;;45.90;24.90;;;1.90;99.90;;;;;;5008055;28;20209;-68
2020/12/10 06:13:09;;;;;;;48.90;23.73;;;2.00;99.90;;;;;;4984011;28;20435;-68
2020/12/10 06:15:35;;;;;;;43.33;22.60;;;2.00;99.90;;;;;;4994364;28;20419;-68
2020/12/10 06:18:13;;;;;;;46.03;26.30;;;2.00;99.90;;;;;;4999876;28;20429;-68
2020/12/10 06:20:41;;;;;;;45.40;24.53;;;2.00;99.90;;;;;;5009605;28;21142;-68
2020/12/10 06:23:32;;;;;;;44.70;24.50;;;1.90;99.90;;;;;;5012611;28;20430;-68
2020/12/10 06:26:19;;;;;;;47.77;24.97;;;1.90;99.90;;;;;;5003629;28;20430;-67
2020/12/10 06:28:44;;;;;;;38.30;22.20;;;2.00;99.90;;;;;;5000198;28;20515;-68
2020/12/10 06:31:12;;;;;;;56.97;29.70;;;2.00;99.90;;;;;;4998240;28;20919;-67
2020/12/10 06:33:40;;;;;;;75.20;36.90;;;2.10;99.90;;;;;;5011918;28;20214;-67
2020/12/10 06:36:21;;;;;;;58.23;29.90;;;2.00;99.90;;;;;;5005439;28;20499;-66
2020/12/10 06:38:51;;;;;;;51.63;25.40;;;2.00;99.90;;;;;;5000406;28;20434;-66
2020/12/10 06:41:17;;;;;;;51.13;23.90;;;2.00;99.90;;;;;;4979789;28;20427;-67
2020/12/10 06:43:42;;;;;;;46.13;27.50;;;2.10;99.90;;;;;;5013005;28;20487;-66
2020/12/10 06:46:08;;;;;;;33.73;21.80;;;2.20;99.90;;;;;;5004267;28;20495;-67
2020/12/10 06:48:39;;;;;;;46.00;27.27;;;2.20;99.90;;;;;;4994528;28;20226;-67
2020/12/10 06:51:19;;;;;;;40.80;26.37;;;2.20;99.90;;;;;;4997442;28;20183;-68
2020/12/10 06:53:59;;;;;;;39.43;25.70;;;2.20;99.90;;;;;;4998725;28;20453;-68
2020/12/10 06:56:26;;;;;;;40.23;23.80;;;2.20;99.90;;;;;;5004309;28;20421;-68
2020/12/10 06:58:54;;;;;;;47.03;27.37;;;2.20;99.90;;;;;;4997620;28;20512;-68
2020/12/10 07:01:29;;;;;;;45.43;24.97;;;2.20;99.90;;;;;;5004017;28;20524;-68
2020/12/10 07:04:30;;;;;;;37.93;24.00;;;2.30;99.90;;;;;;4997221;28;20468;-68
2020/12/10 07:07:21;;;;;;;38.53;24.33;;;2.40;99.90;;;;;;5000421;28;20572;-68
2020/12/10 07:09:57;;;;;;;33.80;23.23;;;2.40;99.90;;;;;;4992972;28;20462;-68
2020/12/10 07:12:32;;;;;;;39.13;23.53;;;2.50;99.90;;;;;;4986845;28;20434;-68
2020/12/10 07:15:27;;;;;;;39.13;22.20;;;2.60;99.90;;;;;;5001631;28;20448;-68
2020/12/10 07:17:53;;;;;;;36.30;22.93;;;2.70;99.90;;;;;;4995932;28;20439;-68
2020/12/10 07:20:20;;;;;;;39.00;23.50;;;2.70;99.90;;;;;;4993741;28;20433;-68
2020/12/10 07:22:46;;;;;;;36.60;23.87;;;2.70;99.90;;;;;;5005526;28;20431;-68
2020/12/10 07:25:11;;;;;;;34.67;22.47;;;2.70;99.90;;;;;;5002318;28;20534;-68
2020/12/10 07:27:40;;;;;;;40.47;25.50;;;2.60;99.90;;;;;;5000088;28;20186;-68
2020/12/10 07:30:10;;;;;;;43.40;24.67;;;2.50;99.90;;;;;;4995783;28;20258;-67
2020/12/10 07:32:35;;;;;;;49.80;31.03;;;2.40;99.90;;;;;;5008582;28;21006;-68
2020/12/10 07:35:01;;;;;;;44.07;23.93;;;2.40;99.90;;;;;;4999770;28;20590;-68
2020/12/10 07:37:31;;;;;;;45.80;26.67;;;2.40;99.90;;;;;;5003970;28;20188;-68
2020/12/10 07:40:07;;;;;;;41.00;25.07;;;2.50;99.90;;;;;;4988554;28;20190;-68
2020/12/10 07:42:33;;;;;;;34.87;21.83;;;2.40;99.90;;;;;;4958771;28;20445;-69
2020/12/10 07:45:12;;;;;;;39.67;25.00;;;2.50;99.90;;;;;;4997665;28;20477;-68
2020/12/10 07:47:38;;;;;;;42.50;25.37;;;2.50;99.90;;;;;;4990289;28;20188;-68
2020/12/10 07:50:23;;;;;;;37.83;24.20;;;2.60;99.90;;;;;;4996534;28;20600;-68
2020/12/10 07:52:50;;;;;;;37.90;25.03;;;2.70;99.90;;;;;;4983078;28;20998;-68
2020/12/10 07:55:20;;;;;;;41.30;26.77;;;2.70;99.90;;;;;;4998329;28;20450;-68
2020/12/10 07:58:04;;;;;;;49.60;27.10;;;2.50;99.90;;;;;;4999131;28;20434;-68
2020/12/10 08:00:30;;;;;;;38.60;24.93;;;2.60;99.90;;;;;;4991528;28;20481;-69
2020/12/10 08:03:53;;;;;;;37.00;22.20;;;2.60;99.90;;;;;;4981808;28;20816;-69
2020/12/10 08:06:19;;;;;;;35.20;22.03;;;2.50;99.90;;;;;;4923140;29;20446;-68
2020/12/10 08:09:07;;;;;;;31.87;21.20;;;2.40;99.90;;;;;;4927176;29;20504;-69
2020/12/10 08:11:32;;;;;;;36.63;20.30;;;2.40;99.90;;;;;;4955265;28;20450;-69
2020/12/10 08:14:05;;;;;;;34.90;20.10;;;2.50;99.90;;;;;;4997199;28;20447;-68
2020/12/10 08:16:44;;;;;;;32.00;20.83;;;2.50;99.90;;;;;;5004869;28;20299;-69
2020/12/10 08:19:25;;;;;;;35.77;22.37;;;2.50;99.90;;;;;;4997013;28;20585;-68
2020/12/10 08:21:51;;;;;;;40.57;23.63;;;2.40;99.90;;;;;;4999194;28;20873;-68
2020/12/10 08:24:37;;;;;;;50.63;28.93;;;2.30;99.90;;;;;;5000295;28;20447;-69
2020/12/10 08:27:04;;;;;;;43.90;25.40;;;2.30;99.90;;;;;;4983949;28;20434;-69
2020/12/10 08:29:29;;;;;;;37.33;24.40;;;2.30;99.90;;;;;;5004581;28;20504;-69
2020/12/10 08:32:12;;;;;;;40.40;24.10;;;2.40;99.90;;;;;;4977737;28;20463;-69
2020/12/10 08:34:39;;;;;;;36.13;24.27;;;2.40;99.90;;;;;;5020340;23;20218;-64
2020/12/10 08:37:06;;;;;;;39.77;23.30;;;2.40;99.90;;;;;;5010730;28;20767;-65
2020/12/10 08:39:36;;;;;;;34.10;22.13;;;2.40;99.90;;;;;;5009774;28;20429;-66
2020/12/10 08:42:03;;;;;;;40.93;25.83;;;2.40;99.90;;;;;;5009069;28;20432;-65
2020/12/10 08:44:47;;;;;;;35.10;22.73;;;2.40;99.90;;;;;;5010432;28;20434;-65
2020/12/10 08:47:13;;;;;;;38.77;24.03;;;2.40;99.90;;;;;;5010472;28;20511;-65
2020/12/10 08:49:39;;;;;;;41.70;25.20;;;2.40;99.90;;;;;;5016406;28;20476;-65
2020/12/10 08:52:04;;;;;;;34.93;23.57;;;2.40;99.90;;;;;;5009928;28;20262;-64
2020/12/10 08:54:30;;;;;;;33.57;19.43;;;2.40;99.90;;;;;;5010037;28;20450;-66
2020/12/10 08:57:00;;;;;;;39.33;20.70;;;2.30;99.90;;;;;;5010561;28;20800;-66
2020/12/10 08:59:25;;;;;;;27.23;17.30;;;2.30;99.90;;;;;;5009329;28;20182;-65
2020/12/10 09:01:52;;;;;;;33.93;19.37;;;2.30;99.90;;;;;;5010107;28;20448;-66
2020/12/10 09:04:18;;;;;;;33.60;20.20;;;2.40;99.90;;;;;;4997323;28;20199;-65
2020/12/10 09:06:44;;;;;;;34.13;19.87;;;2.50;99.90;;;;;;5010295;28;20958;-64
2020/12/10 09:09:09;;;;;;;27.23;16.50;;;2.60;99.90;;;;;;5009287;28;20282;-66
2020/12/10 09:11:35;;;;;;;15.33;11.43;;;2.50;99.90;;;;;;5012368;28;21251;-65
2020/12/10 09:14:01;;;;;;;15.13;9.83;;;2.30;99.90;;;;;;5009642;28;20201;-65
2020/12/10 09:16:28;;;;;;;12.93;10.03;;;2.40;99.90;;;;;;5010369;28;20254;-66
2020/12/10 09:18:53;;;;;;;16.23;12.20;;;2.40;99.90;;;;;;5004384;28;20233;-67
2020/12/10 09:21:19;;;;;;;13.00;9.70;;;2.40;99.90;;;;;;5008938;28;20425;-65
2020/12/10 09:23:45;;;;;;;13.93;9.50;;;2.40;99.90;;;;;;5009115;28;20211;-65
2020/12/10 09:26:12;;;;;;;12.13;8.70;;;2.20;99.90;;;;;;5009483;28;20516;-64
2020/12/10 09:28:37;;;;;;;10.67;8.63;;;2.10;99.90;;;;;;5009536;28;20183;-66
2020/12/10 09:31:03;;;;;;;12.60;8.60;;;2.20;99.90;;;;;;5012231;28;20438;-65
2020/12/10 09:33:29;;;;;;;12.97;9.70;;;2.50;99.90;;;;;;5010517;28;20465;-65
2020/12/10 09:35:54;;;;;;;13.13;8.90;;;2.60;99.90;;;;;;5013617;28;20214;-66
2020/12/10 09:38:20;;;;;;;13.80;9.53;;;2.90;99.90;;;;;;5009455;28;20691;-66
2020/12/10 09:40:45;;;;;;;12.20;9.07;;;3.10;99.90;;;;;;5013940;28;20179;-66
2020/12/10 09:43:11;;;;;;;11.20;9.30;;;3.20;99.90;;;;;;5013800;28;20738;-66
2020/12/10 09:45:37;;;;;;;13.60;9.13;;;3.40;99.90;;;;;;5014098;28;20194;-66
2020/12/10 09:48:02;;;;;;;12.87;9.30;;;3.60;99.90;;;;;;5012712;28;20175;-66
2020/12/10 09:50:31;;;;;;;12.77;9.10;;;3.80;99.90;;;;;;5013653;28;20198;-66
2020/12/10 09:53:03;;;;;;;13.10;9.17;;;4.00;99.90;;;;;;5013556;28;20621;-65
2020/12/10 09:58:13;;;;;;;10.63;8.00;;;4.20;99.90;;;;;;5012921;28;20488;-65
2020/12/10 10:00:38;;;;;;;12.10;8.43;;;4.20;99.90;;;;;;5013837;28;20922;-66
2020/12/10 10:03:06;;;;;;;12.40;9.40;;;4.30;99.90;;;;;;5014210;28;20179;-66
2020/12/10 10:05:35;;;;;;;12.23;9.30;;;4.10;99.90;;;;;;5013662;28;20668;-65
2020/12/10 10:08:01;;;;;;;14.73;10.70;;;4.00;99.90;;;;;;5012932;28;20492;-66
2020/12/10 10:10:27;;;;;;;13.70;10.90;;;3.90;99.90;;;;;;5013804;28;20550;-67
2020/12/10 10:12:53;;;;;;;13.70;10.90;;;3.90;99.90;;;;;;5013698;28;21029;-67
2020/12/10 10:15:19;;;;;;;17.13;11.40;;;4.00;99.90;;;;;;5013110;28;20477;-65
2020/12/10 10:17:44;;;;;;;15.67;12.23;;;3.90;99.90;;;;;;4993630;28;20171;-66
2020/12/10 10:20:10;;;;;;;21.13;15.43;;;4.00;99.90;;;;;;5013000;28;20175;-65
2020/12/10 10:22:38;;;;;;;16.17;13.47;;;3.90;99.90;;;;;;5007210;28;20252;-65
2020/12/10 10:25:05;;;;;;;15.60;11.50;;;3.90;99.90;;;;;;5006777;28;20314;-66
2020/12/10 10:27:31;;;;;;;14.40;10.93;;;3.90;99.90;;;;;;5009468;28;20531;-65
2020/12/10 10:29:56;;;;;;;16.23;11.13;;;3.80;99.90;;;;;;5008889;28;20540;-66
2020/12/10 10:32:22;;;;;;;15.27;11.30;;;3.80;99.90;;;;;;5010235;28;20190;-64
2020/12/10 10:34:47;;;;;;;15.87;12.03;;;3.90;99.90;;;;;;5009603;28;20222;-65
2020/12/10 10:37:13;;;;;;;17.90;12.83;;;3.90;99.90;;;;;;5009888;28;20450;-65
2020/12/10 10:39:39;;;;;;;14.60;11.33;;;3.90;99.90;;;;;;5009480;28;20191;-65
2020/12/10 10:42:05;;;;;;;15.93;11.57;;;3.70;99.90;;;;;;5009500;28;20286;-65
2020/12/10 10:44:31;;;;;;;14.10;10.47;;;3.60;99.90;;;;;;5009877;28;20195;-66
2020/12/10 10:46:56;;;;;;;15.40;11.67;;;3.60;99.90;;;;;;5009930;28;20818;-65
2020/12/10 10:49:22;;;;;;;15.33;11.77;;;3.50;99.90;;;;;;5008973;28;20296;-63
2020/12/10 10:51:48;;;;;;;19.10;13.73;;;3.50;99.90;;;;;;5009319;28;20258;-64
2020/12/10 10:54:14;;;;;;;15.70;11.83;;;3.50;99.90;;;;;;5009683;28;20210;-65
2020/12/10 10:56:40;;;;;;;17.57;12.33;;;3.40;99.90;;;;;;5009652;28;20429;-65
2020/12/10 10:59:07;;;;;;;24.73;14.77;;;3.50;99.90;;;;;;5007726;28;22007;-65
2020/12/10 11:01:32;;;;;;;19.23;14.80;;;3.50;99.90;;;;;;5009606;28;20187;-65
2020/12/10 11:03:58;;;;;;;21.47;15.03;;;3.60;99.90;;;;;;5008844;28;21297;-65
2020/12/10 11:06:24;;;;;;;19.80;14.03;;;3.70;99.90;;;;;;5004769;28;20321;-65
2020/12/10 11:08:49;;;;;;;23.07;14.27;;;3.60;99.90;;;;;;5012788;28;20237;-66
2020/12/10 11:11:19;;;;;;;19.40;15.00;;;3.70;99.90;;;;;;5009609;28;20441;-67
2020/12/10 11:13:45;;;;;;;21.37;15.00;;;3.60;99.90;;;;;;5009799;28;20659;-65
2020/12/10 11:16:11;;;;;;;19.87;15.03;;;3.60;99.90;;;;;;5009541;28;20414;-65
2020/12/10 11:18:39;;;;;;;26.60;17.20;;;3.50;99.90;;;;;;4974918;28;20309;-66
2020/12/10 11:21:27;;;;;;;21.63;15.23;;;3.60;99.90;;;;;;5009674;28;20549;-65
2020/12/10 11:23:54;;;;;;;21.87;16.10;;;3.70;99.90;;;;;;4970969;28;20458;-65
2020/12/10 11:26:19;;;;;;;25.80;15.60;;;3.70;99.90;;;;;;5008934;28;20499;-65
2020/12/10 11:28:45;;;;;;;23.50;15.73;;;3.70;99.90;;;;;;5008073;28;20456;-65
2020/12/10 11:31:10;;;;;;;25.67;16.90;;;3.80;99.90;;;;;;5009414;28;20934;-66
2020/12/10 11:33:36;;;;;;;23.47;17.67;;;3.90;99.90;;;;;;5008418;28;20270;-65
2020/12/10 11:36:04;;;;;;;25.43;17.17;;;4.00;99.90;;;;;;5009945;28;20628;-64
2020/12/10 11:38:30;;;;;;;22.47;15.00;;;3.90;99.90;;;;;;5007831;28;20179;-64
2020/12/10 11:40:56;;;;;;;25.23;16.50;;;4.00;99.90;;;;;;5009205;28;20425;-64
2020/12/10 11:43:21;;;;;;;23.20;16.70;;;4.00;99.90;;;;;;5009549;28;20171;-64
2020/12/10 11:45:47;;;;;;;19.67;14.77;;;4.00;99.90;;;;;;5006342;28;20527;-64
2020/12/10 11:48:12;;;;;;;23.00;15.80;;;4.00;99.90;;;;;;5009226;28;20175;-64
2020/12/10 11:50:38;;;;;;;26.30;17.53;;;4.00;99.90;;;;;;5008716;28;20901;-64
2020/12/10 11:53:05;;;;;;;25.87;15.87;;;4.00;99.90;;;;;;5007947;28;20179;-64
2020/12/10 11:55:31;;;;;;;27.13;16.30;;;4.00;99.90;;;;;;5005838;28;20206;-64
2020/12/10 11:57:56;;;;;;;21.07;14.93;;;4.00;99.90;;;;;;5009236;28;20464;-64
2020/12/10 12:00:22;;;;;;;21.87;16.57;;;3.90;99.90;;;;;;5010287;28;20182;-64
2020/12/10 12:02:51;;;;;;;20.43;14.27;;;3.90;99.90;;;;;;5011246;28;20186;-64
2020/12/10 12:05:16;;;;;;;17.80;13.43;;;3.90;99.90;;;;;;5011806;28;20183;-64
2020/12/10 12:07:44;;;;;;;22.30;15.23;;;3.80;99.90;;;;;;5010864;28;20994;-64
2020/12/10 12:10:10;;;;;;;23.67;16.47;;;3.70;99.90;;;;;;5011695;28;20218;-64
2020/12/10 12:12:36;;;;;;;21.90;15.20;;;3.70;99.90;;;;;;5011694;28;20418;-64
2020/12/10 12:15:07;;;;;;;23.20;15.30;;;3.80;99.90;;;;;;5011594;28;20194;-64
2020/12/10 12:17:36;;;;;;;22.40;15.17;;;3.90;99.90;;;;;;5011536;28;20414;-64
2020/12/10 12:20:06;;;;;;;25.87;15.03;;;4.00;99.90;;;;;;5011179;28;20550;-64
2020/12/10 12:22:33;;;;;;;21.93;14.67;;;4.00;99.90;;;;;;5011518;28;20425;-64
2020/12/10 12:24:59;;;;;;;22.07;15.37;;;3.90;99.90;;;;;;5011080;28;20445;-64
2020/12/10 12:27:24;;;;;;;26.83;20.17;;;3.90;99.90;;;;;;5011524;28;20933;-64
2020/12/10 12:29:50;;;;;;;25.93;16.00;;;4.00;99.90;;;;;;5009400;28;20202;-64
2020/12/10 12:32:15;;;;;;;23.37;15.37;;;4.00;99.90;;;;;;5011246;28;20172;-64
2020/12/10 12:34:41;;;;;;;24.20;16.10;;;4.00;99.90;;;;;;5011127;28;20206;-64
2020/12/10 12:37:07;;;;;;;21.23;15.37;;;4.00;99.90;;;;;;5011156;28;20217;-65
2020/12/10 12:39:32;;;;;;;23.47;14.97;;;3.90;99.90;;;;;;5010435;28;20183;-64
2020/12/10 12:41:58;;;;;;;18.90;13.40;;;3.90;99.90;;;;;;5011177;28;20175;-64
2020/12/10 12:44:23;;;;;;;20.57;15.90;;;3.90;99.90;;;;;;5011035;28;20198;-64